sensor_id;sensor_type;location;lat;lon;timestamp;P1;durP1;ratioP1;P2;durP2;ratioP2
55633;SDS011;41504;53.162;6.788;2023-02-18T00:00:19;13.98;;;2.80;;
55633;SDS011;41504;53.162;6.788;2023-02-18T00:02:47;13.43;;;3.05;;
55633;SDS011;41504;53.162;6.788;2023-02-18T00:05:14;15.93;;;3.20;;
55633;SDS011;41504;53.162;6.788;2023-02-18T00:07:40;14.20;;;3.40;;
55633;SDS011;41504;53.162;6.788;2023-02-18T00:10:08;16.02;;;3.42;;
55633;SDS011;41504;53.162;6.788;2023-02-18T00:12:36;15.38;;;3.40;;
55633;SDS011;41504;53.162;6.788;2023-02-18T00:15:02;12.13;;;2.80;;
55633;SDS011;41504;53.162;6.788;2023-02-18T00:17:28;14.70;;;2.70;;
55633;SDS011;41504;53.162;6.788;2023-02-18T00:19:55;17.35;;;3.00;;
55633;SDS011;41504;53.162;6.788;2023-02-18T00:22:21;16.05;;;3.65;;
55633;SDS011;41504;53.162;6.788;2023-02-18T00:24:47;14.43;;;2.92;;
55633;SDS011;41504;53.162;6.788;2023-02-18T00:27:13;12.85;;;2.90;;
55633;SDS011;41504;53.162;6.788;2023-02-18T00:29:39;13.00;;;2.92;;
55633;SDS011;41504;53.162;6.788;2023-02-18T00:32:05;13.00;;;3.40;;
55633;SDS011;41504;53.162;6.788;2023-02-18T00:34:31;12.60;;;2.88;;
55633;SDS011;41504;53.162;6.788;2023-02-18T00:36:57;13.93;;;2.88;;
55633;SDS011;41504;53.162;6.788;2023-02-18T00:39:23;12.95;;;3.13;;
55633;SDS011;41504;53.162;6.788;2023-02-18T00:41:48;17.08;;;2.63;;
55633;SDS011;41504;53.162;6.788;2023-02-18T00:44:22;9.85;;;2.53;;
55633;SDS011;41504;53.162;6.788;2023-02-18T00:46:48;14.18;;;2.70;;
55633;SDS011;41504;53.162;6.788;2023-02-18T00:49:14;17.63;;;2.88;;
55633;SDS011;41504;53.162;6.788;2023-02-18T00:51:41;11.80;;;2.83;;
55633;SDS011;41504;53.162;6.788;2023-02-18T00:54:07;11.27;;;2.80;;
55633;SDS011;41504;53.162;6.788;2023-02-18T00:56:33;17.67;;;3.22;;
55633;SDS011;41504;53.162;6.788;2023-02-18T00:58:59;10.98;;;2.28;;
55633;SDS011;41504;53.162;6.788;2023-02-18T01:01:25;12.45;;;2.97;;
55633;SDS011;41504;53.162;6.788;2023-02-18T01:03:51;15.20;;;2.83;;
55633;SDS011;41504;53.162;6.788;2023-02-18T01:06:18;16.60;;;3.00;;
55633;SDS011;41504;53.162;6.788;2023-02-18T01:08:44;12.85;;;3.25;;
55633;SDS011;41504;53.162;6.788;2023-02-18T01:11:10;12.73;;;2.85;;
55633;SDS011;41504;53.162;6.788;2023-02-18T01:13:37;17.98;;;3.20;;
55633;SDS011;41504;53.162;6.788;2023-02-18T01:16:03;16.15;;;3.15;;
55633;SDS011;41504;53.162;6.788;2023-02-18T01:18:29;14.07;;;2.60;;
55633;SDS011;41504;53.162;6.788;2023-02-18T01:20:55;13.93;;;3.08;;
55633;SDS011;41504;53.162;6.788;2023-02-18T01:23:21;13.82;;;2.70;;
55633;SDS011;41504;53.162;6.788;2023-02-18T01:25:47;14.20;;;3.13;;
55633;SDS011;41504;53.162;6.788;2023-02-18T01:28:13;14.63;;;3.00;;
55633;SDS011;41504;53.162;6.788;2023-02-18T01:30:39;15.90;;;3.00;;
55633;SDS011;41504;53.162;6.788;2023-02-18T01:33:08;14.77;;;2.67;;
55633;SDS011;41504;53.162;6.788;2023-02-18T01:35:36;13.73;;;3.10;;
55633;SDS011;41504;53.162;6.788;2023-02-18T01:38:03;13.45;;;3.03;;
55633;SDS011;41504;53.162;6.788;2023-02-18T01:40:29;11.32;;;2.75;;
55633;SDS011;41504;53.162;6.788;2023-02-18T01:42:55;11.55;;;2.53;;
55633;SDS011;41504;53.162;6.788;2023-02-18T01:48:10;12.65;;;2.58;;
55633;SDS011;41504;53.162;6.788;2023-02-18T01:50:53;11.27;;;2.88;;
55633;SDS011;41504;53.162;6.788;2023-02-18T01:56:29;13.00;;;2.88;;
55633;SDS011;41504;53.162;6.788;2023-02-18T01:59:00;12.80;;;2.80;;
55633;SDS011;41504;53.162;6.788;2023-02-18T02:01:30;13.85;;;3.08;;
55633;SDS011;41504;53.162;6.788;2023-02-18T02:03:57;13.95;;;3.28;;
55633;SDS011;41504;53.162;6.788;2023-02-18T02:06:23;13.60;;;3.15;;
55633;SDS011;41504;53.162;6.788;2023-02-18T02:08:50;10.88;;;3.05;;
55633;SDS011;41504;53.162;6.788;2023-02-18T02:14:16;9.95;;;2.78;;
55633;SDS011;41504;53.162;6.788;2023-02-18T02:23:14;9.98;;;2.50;;
55633;SDS011;41504;53.162;6.788;2023-02-18T02:26:08;16.98;;;3.53;;
55633;SDS011;41504;53.162;6.788;2023-02-18T02:39:46;14.50;;;3.38;;
55633;SDS011;41504;53.162;6.788;2023-02-18T02:42:39;11.52;;;3.45;;
55633;SDS011;41504;53.162;6.788;2023-02-18T02:48:24;17.73;;;3.83;;
55633;SDS011;41504;53.162;6.788;2023-02-18T02:53:44;16.88;;;3.67;;
55633;SDS011;41504;53.162;6.788;2023-02-18T02:56:20;17.50;;;3.28;;
55633;SDS011;41504;53.162;6.788;2023-02-18T02:58:57;15.40;;;4.85;;
55633;SDS011;41504;53.162;6.788;2023-02-18T03:01:35;17.40;;;3.50;;
55633;SDS011;41504;53.162;6.788;2023-02-18T03:04:19;14.13;;;3.10;;
55633;SDS011;41504;53.162;6.788;2023-02-18T03:13:06;14.40;;;3.70;;
55633;SDS011;41504;53.162;6.788;2023-02-18T03:15:45;14.93;;;3.60;;
55633;SDS011;41504;53.162;6.788;2023-02-18T03:18:14;16.13;;;4.07;;
55633;SDS011;41504;53.162;6.788;2023-02-18T03:20:52;14.05;;;3.85;;
55633;SDS011;41504;53.162;6.788;2023-02-18T03:23:32;16.00;;;3.58;;
55633;SDS011;41504;53.162;6.788;2023-02-18T03:26:16;18.02;;;4.97;;
55633;SDS011;41504;53.162;6.788;2023-02-18T03:28:44;18.67;;;4.20;;
55633;SDS011;41504;53.162;6.788;2023-02-18T03:31:17;15.82;;;4.70;;
55633;SDS011;41504;53.162;6.788;2023-02-18T03:33:49;17.77;;;5.57;;
55633;SDS011;41504;53.162;6.788;2023-02-18T03:36:19;19.20;;;4.43;;
55633;SDS011;41504;53.162;6.788;2023-02-18T03:38:54;14.73;;;4.88;;
55633;SDS011;41504;53.162;6.788;2023-02-18T03:41:26;16.10;;;4.93;;
55633;SDS011;41504;53.162;6.788;2023-02-18T03:43:59;16.35;;;5.25;;
55633;SDS011;41504;53.162;6.788;2023-02-18T03:46:28;13.93;;;5.53;;
55633;SDS011;41504;53.162;6.788;2023-02-18T03:48:55;19.98;;;5.82;;
55633;SDS011;41504;53.162;6.788;2023-02-18T03:51:20;16.13;;;5.35;;
55633;SDS011;41504;53.162;6.788;2023-02-18T03:53:46;15.48;;;5.22;;
55633;SDS011;41504;53.162;6.788;2023-02-18T03:56:12;18.00;;;6.65;;
55633;SDS011;41504;53.162;6.788;2023-02-18T03:58:38;14.77;;;5.20;;
55633;SDS011;41504;53.162;6.788;2023-02-18T04:01:04;14.50;;;5.35;;
55633;SDS011;41504;53.162;6.788;2023-02-18T04:03:31;19.75;;;5.38;;
55633;SDS011;41504;53.162;6.788;2023-02-18T04:05:57;15.48;;;5.57;;
55633;SDS011;41504;53.162;6.788;2023-02-18T04:08:23;15.98;;;5.85;;
55633;SDS011;41504;53.162;6.788;2023-02-18T04:10:49;14.60;;;6.05;;
55633;SDS011;41504;53.162;6.788;2023-02-18T04:13:14;19.45;;;5.68;;
55633;SDS011;41504;53.162;6.788;2023-02-18T04:15:42;17.92;;;6.82;;
55633;SDS011;41504;53.162;6.788;2023-02-18T04:18:08;14.68;;;6.47;;
55633;SDS011;41504;53.162;6.788;2023-02-18T04:20:34;17.45;;;6.07;;
55633;SDS011;41504;53.162;6.788;2023-02-18T04:23:01;14.93;;;6.25;;
55633;SDS011;41504;53.162;6.788;2023-02-18T04:25:27;14.18;;;6.07;;
55633;SDS011;41504;53.162;6.788;2023-02-18T04:27:53;16.45;;;6.50;;
55633;SDS011;41504;53.162;6.788;2023-02-18T04:30:19;18.42;;;6.50;;
55633;SDS011;41504;53.162;6.788;2023-02-18T04:32:45;16.05;;;6.82;;
55633;SDS011;41504;53.162;6.788;2023-02-18T04:35:10;13.70;;;6.20;;
55633;SDS011;41504;53.162;6.788;2023-02-18T04:37:36;15.70;;;6.38;;
55633;SDS011;41504;53.162;6.788;2023-02-18T04:40:02;15.55;;;6.28;;
55633;SDS011;41504;53.162;6.788;2023-02-18T04:42:28;17.77;;;7.07;;
55633;SDS011;41504;53.162;6.788;2023-02-18T04:44:53;17.23;;;7.10;;
55633;SDS011;41504;53.162;6.788;2023-02-18T04:47:19;18.30;;;6.50;;
55633;SDS011;41504;53.162;6.788;2023-02-18T04:49:45;17.70;;;7.50;;
55633;SDS011;41504;53.162;6.788;2023-02-18T04:52:10;18.00;;;6.30;;
55633;SDS011;41504;53.162;6.788;2023-02-18T04:54:36;17.08;;;6.72;;
55633;SDS011;41504;53.162;6.788;2023-02-18T04:57:02;18.52;;;7.80;;
55633;SDS011;41504;53.162;6.788;2023-02-18T04:59:28;16.88;;;7.20;;
55633;SDS011;41504;53.162;6.788;2023-02-18T05:01:53;19.50;;;6.82;;
55633;SDS011;41504;53.162;6.788;2023-02-18T05:04:19;15.27;;;6.93;;
55633;SDS011;41504;53.162;6.788;2023-02-18T05:06:45;21.08;;;7.75;;
55633;SDS011;41504;53.162;6.788;2023-02-18T05:09:14;17.67;;;7.50;;
55633;SDS011;41504;53.162;6.788;2023-02-18T05:11:40;18.25;;;7.43;;
55633;SDS011;41504;53.162;6.788;2023-02-18T05:14:06;16.67;;;7.57;;
55633;SDS011;41504;53.162;6.788;2023-02-18T05:16:37;18.13;;;7.40;;
55633;SDS011;41504;53.162;6.788;2023-02-18T05:19:03;16.60;;;8.15;;
55633;SDS011;41504;53.162;6.788;2023-02-18T05:21:29;16.83;;;9.30;;
55633;SDS011;41504;53.162;6.788;2023-02-18T05:23:55;27.30;;;11.43;;
55633;SDS011;41504;53.162;6.788;2023-02-18T05:26:21;25.20;;;11.77;;
55633;SDS011;41504;53.162;6.788;2023-02-18T05:28:47;27.52;;;13.13;;
55633;SDS011;41504;53.162;6.788;2023-02-18T05:31:13;29.48;;;14.40;;
55633;SDS011;41504;53.162;6.788;2023-02-18T05:33:39;28.83;;;14.90;;
55633;SDS011;41504;53.162;6.788;2023-02-18T05:36:05;35.38;;;17.00;;
55633;SDS011;41504;53.162;6.788;2023-02-18T05:38:31;32.97;;;15.13;;
55633;SDS011;41504;53.162;6.788;2023-02-18T05:40:57;34.10;;;17.30;;
55633;SDS011;41504;53.162;6.788;2023-02-18T05:43:23;42.85;;;17.67;;
55633;SDS011;41504;53.162;6.788;2023-02-18T05:45:48;43.15;;;18.30;;
55633;SDS011;41504;53.162;6.788;2023-02-18T05:48:14;36.70;;;17.85;;
55633;SDS011;41504;53.162;6.788;2023-02-18T05:50:40;42.15;;;19.17;;
55633;SDS011;41504;53.162;6.788;2023-02-18T05:53:06;41.15;;;19.60;;
55633;SDS011;41504;53.162;6.788;2023-02-18T05:55:31;41.70;;;18.80;;
55633;SDS011;41504;53.162;6.788;2023-02-18T05:58:02;40.58;;;19.58;;
55633;SDS011;41504;53.162;6.788;2023-02-18T06:00:27;35.38;;;19.92;;
55633;SDS011;41504;53.162;6.788;2023-02-18T06:02:54;40.70;;;19.42;;
55633;SDS011;41504;53.162;6.788;2023-02-18T06:05:20;37.70;;;19.83;;
55633;SDS011;41504;53.162;6.788;2023-02-18T06:07:46;39.20;;;19.20;;
55633;SDS011;41504;53.162;6.788;2023-02-18T06:10:17;42.33;;;19.73;;
55633;SDS011;41504;53.162;6.788;2023-02-18T06:12:43;40.22;;;19.58;;
55633;SDS011;41504;53.162;6.788;2023-02-18T06:15:09;35.63;;;18.67;;
55633;SDS011;41504;53.162;6.788;2023-02-18T06:17:34;31.55;;;16.90;;
55633;SDS011;41504;53.162;6.788;2023-02-18T06:20:00;36.80;;;18.70;;
55633;SDS011;41504;53.162;6.788;2023-02-18T06:22:27;35.67;;;18.20;;
55633;SDS011;41504;53.162;6.788;2023-02-18T06:24:53;34.42;;;17.42;;
55633;SDS011;41504;53.162;6.788;2023-02-18T06:27:18;32.78;;;15.73;;
55633;SDS011;41504;53.162;6.788;2023-02-18T06:29:45;34.35;;;17.33;;
55633;SDS011;41504;53.162;6.788;2023-02-18T06:32:10;34.72;;;16.88;;
55633;SDS011;41504;53.162;6.788;2023-02-18T06:34:36;30.10;;;16.02;;
55633;SDS011;41504;53.162;6.788;2023-02-18T06:37:02;31.48;;;15.88;;
55633;SDS011;41504;53.162;6.788;2023-02-18T06:39:27;28.98;;;14.82;;
55633;SDS011;41504;53.162;6.788;2023-02-18T06:41:53;25.65;;;13.13;;
55633;SDS011;41504;53.162;6.788;2023-02-18T06:44:19;27.42;;;13.93;;
55633;SDS011;41504;53.162;6.788;2023-02-18T06:46:44;28.50;;;12.73;;
55633;SDS011;41504;53.162;6.788;2023-02-18T06:49:10;23.67;;;11.88;;
55633;SDS011;41504;53.162;6.788;2023-02-18T06:51:36;25.02;;;12.75;;
55633;SDS011;41504;53.162;6.788;2023-02-18T06:54:02;25.42;;;11.15;;
55633;SDS011;41504;53.162;6.788;2023-02-18T06:56:28;22.70;;;10.82;;
55633;SDS011;41504;53.162;6.788;2023-02-18T06:58:54;18.60;;;9.65;;
55633;SDS011;41504;53.162;6.788;2023-02-18T07:01:19;19.83;;;9.55;;
55633;SDS011;41504;53.162;6.788;2023-02-18T07:03:45;21.20;;;9.40;;
55633;SDS011;41504;53.162;6.788;2023-02-18T07:06:11;16.80;;;8.50;;
55633;SDS011;41504;53.162;6.788;2023-02-18T07:08:36;15.20;;;8.15;;
55633;SDS011;41504;53.162;6.788;2023-02-18T07:11:03;15.07;;;8.15;;
55633;SDS011;41504;53.162;6.788;2023-02-18T07:13:29;17.30;;;8.35;;
55633;SDS011;41504;53.162;6.788;2023-02-18T07:15:55;17.48;;;8.00;;
55633;SDS011;41504;53.162;6.788;2023-02-18T07:18:20;17.17;;;7.45;;
55633;SDS011;41504;53.162;6.788;2023-02-18T07:20:46;13.90;;;8.05;;
55633;SDS011;41504;53.162;6.788;2023-02-18T07:23:12;16.98;;;8.15;;
55633;SDS011;41504;53.162;6.788;2023-02-18T07:25:37;16.67;;;8.80;;
55633;SDS011;41504;53.162;6.788;2023-02-18T07:28:03;17.30;;;9.75;;
55633;SDS011;41504;53.162;6.788;2023-02-18T07:30:29;21.10;;;10.95;;
55633;SDS011;41504;53.162;6.788;2023-02-18T07:32:55;19.17;;;10.48;;
55633;SDS011;41504;53.162;6.788;2023-02-18T07:35:23;19.83;;;10.80;;
55633;SDS011;41504;53.162;6.788;2023-02-18T07:37:49;18.85;;;9.93;;
55633;SDS011;41504;53.162;6.788;2023-02-18T07:40:16;19.20;;;10.68;;
55633;SDS011;41504;53.162;6.788;2023-02-18T07:42:44;20.23;;;10.30;;
55633;SDS011;41504;53.162;6.788;2023-02-18T07:45:10;19.48;;;11.15;;
55633;SDS011;41504;53.162;6.788;2023-02-18T07:47:36;20.40;;;10.43;;
55633;SDS011;41504;53.162;6.788;2023-02-18T07:50:07;18.38;;;9.85;;
55633;SDS011;41504;53.162;6.788;2023-02-18T07:52:34;17.27;;;9.40;;
55633;SDS011;41504;53.162;6.788;2023-02-18T07:54:59;17.45;;;9.48;;
55633;SDS011;41504;53.162;6.788;2023-02-18T07:57:25;22.92;;;9.85;;
55633;SDS011;41504;53.162;6.788;2023-02-18T07:59:51;17.58;;;10.20;;
55633;SDS011;41504;53.162;6.788;2023-02-18T08:02:17;16.15;;;9.13;;
55633;SDS011;41504;53.162;6.788;2023-02-18T08:04:46;18.10;;;9.40;;
55633;SDS011;41504;53.162;6.788;2023-02-18T08:07:15;14.77;;;8.70;;
55633;SDS011;41504;53.162;6.788;2023-02-18T08:09:43;16.52;;;9.05;;
55633;SDS011;41504;53.162;6.788;2023-02-18T08:12:09;15.23;;;8.75;;
55633;SDS011;41504;53.162;6.788;2023-02-18T08:14:34;14.80;;;8.77;;
55633;SDS011;41504;53.162;6.788;2023-02-18T08:17:00;15.07;;;8.00;;
55633;SDS011;41504;53.162;6.788;2023-02-18T08:19:26;13.75;;;7.28;;
55633;SDS011;41504;53.162;6.788;2023-02-18T08:21:52;15.10;;;7.68;;
55633;SDS011;41504;53.162;6.788;2023-02-18T08:24:17;15.52;;;8.18;;
55633;SDS011;41504;53.162;6.788;2023-02-18T08:26:43;14.55;;;7.55;;
55633;SDS011;41504;53.162;6.788;2023-02-18T08:29:09;16.10;;;7.05;;
55633;SDS011;41504;53.162;6.788;2023-02-18T08:31:35;13.27;;;6.78;;
55633;SDS011;41504;53.162;6.788;2023-02-18T08:34:04;10.85;;;5.78;;
55633;SDS011;41504;53.162;6.788;2023-02-18T08:36:29;14.93;;;6.60;;
55633;SDS011;41504;53.162;6.788;2023-02-18T08:38:55;13.48;;;5.97;;
55633;SDS011;41504;53.162;6.788;2023-02-18T08:41:39;13.63;;;5.43;;
55633;SDS011;41504;53.162;6.788;2023-02-18T08:44:16;13.88;;;5.00;;
55633;SDS011;41504;53.162;6.788;2023-02-18T08:46:53;12.93;;;4.88;;
55633;SDS011;41504;53.162;6.788;2023-02-18T08:49:26;10.68;;;4.38;;
55633;SDS011;41504;53.162;6.788;2023-02-18T08:52:35;11.85;;;4.78;;
55633;SDS011;41504;53.162;6.788;2023-02-18T08:58:08;11.65;;;5.10;;
55633;SDS011;41504;53.162;6.788;2023-02-18T09:00:42;10.32;;;4.50;;
55633;SDS011;41504;53.162;6.788;2023-02-18T09:03:15;14.05;;;5.10;;
55633;SDS011;41504;53.162;6.788;2023-02-18T09:05:43;10.43;;;4.55;;
55633;SDS011;41504;53.162;6.788;2023-02-18T09:08:22;12.40;;;5.00;;
55633;SDS011;41504;53.162;6.788;2023-02-18T09:10:58;10.35;;;4.63;;
55633;SDS011;41504;53.162;6.788;2023-02-18T09:13:42;12.82;;;4.72;;
55633;SDS011;41504;53.162;6.788;2023-02-18T09:16:21;9.32;;;4.05;;
55633;SDS011;41504;53.162;6.788;2023-02-18T09:18:54;11.77;;;4.40;;
55633;SDS011;41504;53.162;6.788;2023-02-18T09:21:26;9.98;;;3.97;;
55633;SDS011;41504;53.162;6.788;2023-02-18T09:23:57;10.05;;;3.63;;
55633;SDS011;41504;53.162;6.788;2023-02-18T09:26:31;11.82;;;3.60;;
55633;SDS011;41504;53.162;6.788;2023-02-18T09:29:00;10.50;;;3.60;;
55633;SDS011;41504;53.162;6.788;2023-02-18T09:31:29;12.65;;;3.60;;
55633;SDS011;41504;53.162;6.788;2023-02-18T09:33:58;10.77;;;3.47;;
55633;SDS011;41504;53.162;6.788;2023-02-18T09:36:28;8.98;;;3.40;;
55633;SDS011;41504;53.162;6.788;2023-02-18T09:38:54;9.55;;;3.33;;
55633;SDS011;41504;53.162;6.788;2023-02-18T09:44:43;8.35;;;3.28;;
55633;SDS011;41504;53.162;6.788;2023-02-18T09:47:41;8.95;;;3.25;;
55633;SDS011;41504;53.162;6.788;2023-02-18T09:50:48;8.70;;;3.20;;
55633;SDS011;41504;53.162;6.788;2023-02-18T09:53:36;8.00;;;3.40;;
55633;SDS011;41504;53.162;6.788;2023-02-18T09:56:52;7.45;;;2.80;;
55633;SDS011;41504;53.162;6.788;2023-02-18T09:59:52;9.52;;;2.95;;
55633;SDS011;41504;53.162;6.788;2023-02-18T10:03:15;7.18;;;2.80;;
55633;SDS011;41504;53.162;6.788;2023-02-18T10:05:54;10.80;;;2.90;;
55633;SDS011;41504;53.162;6.788;2023-02-18T10:08:27;10.15;;;2.88;;
55633;SDS011;41504;53.162;6.788;2023-02-18T10:11:14;7.68;;;2.67;;
55633;SDS011;41504;53.162;6.788;2023-02-18T10:13:43;8.20;;;3.40;;
55633;SDS011;41504;53.162;6.788;2023-02-18T10:16:09;7.13;;;2.65;;
55633;SDS011;41504;53.162;6.788;2023-02-18T10:18:52;11.57;;;2.95;;
55633;SDS011;41504;53.162;6.788;2023-02-18T10:21:34;11.25;;;2.97;;
55633;SDS011;41504;53.162;6.788;2023-02-18T10:24:04;10.45;;;2.33;;
55633;SDS011;41504;53.162;6.788;2023-02-18T10:26:36;11.77;;;3.30;;
55633;SDS011;41504;53.162;6.788;2023-02-18T10:29:13;13.40;;;2.90;;
55633;SDS011;41504;53.162;6.788;2023-02-18T10:31:43;10.73;;;2.72;;
55633;SDS011;41504;53.162;6.788;2023-02-18T10:36:54;11.35;;;2.53;;
55633;SDS011;41504;53.162;6.788;2023-02-18T10:42:03;9.55;;;2.65;;
55633;SDS011;41504;53.162;6.788;2023-02-18T10:45:04;10.93;;;2.95;;
55633;SDS011;41504;53.162;6.788;2023-02-18T10:47:37;11.00;;;2.63;;
55633;SDS011;41504;53.162;6.788;2023-02-18T10:53:11;14.20;;;3.05;;
55633;SDS011;41504;53.162;6.788;2023-02-18T10:55:55;14.98;;;2.90;;
55633;SDS011;41504;53.162;6.788;2023-02-18T11:01:04;8.25;;;2.45;;
55633;SDS011;41504;53.162;6.788;2023-02-18T11:06:04;14.07;;;3.58;;
55633;SDS011;41504;53.162;6.788;2023-02-18T11:08:42;12.07;;;3.45;;
55633;SDS011;41504;53.162;6.788;2023-02-18T11:11:27;15.10;;;3.65;;
55633;SDS011;41504;53.162;6.788;2023-02-18T11:13:58;17.73;;;3.35;;
55633;SDS011;41504;53.162;6.788;2023-02-18T11:16:39;17.80;;;3.95;;
55633;SDS011;41504;53.162;6.788;2023-02-18T11:19:29;15.57;;;4.47;;
55633;SDS011;41504;53.162;6.788;2023-02-18T11:22:20;16.77;;;4.05;;
55633;SDS011;41504;53.162;6.788;2023-02-18T11:24:55;15.13;;;4.25;;
55633;SDS011;41504;53.162;6.788;2023-02-18T11:32:56;11.83;;;3.87;;
55633;SDS011;41504;53.162;6.788;2023-02-18T11:35:27;13.65;;;4.28;;
55633;SDS011;41504;53.162;6.788;2023-02-18T11:37:56;13.55;;;4.10;;
55633;SDS011;41504;53.162;6.788;2023-02-18T11:40:30;19.10;;;4.20;;
55633;SDS011;41504;53.162;6.788;2023-02-18T11:43:14;16.30;;;3.80;;
55633;SDS011;41504;53.162;6.788;2023-02-18T11:45:42;13.63;;;5.03;;
55633;SDS011;41504;53.162;6.788;2023-02-18T11:48:19;14.82;;;3.90;;
55633;SDS011;41504;53.162;6.788;2023-02-18T11:50:51;14.95;;;4.53;;
55633;SDS011;41504;53.162;6.788;2023-02-18T11:53:25;12.35;;;4.10;;
55633;SDS011;41504;53.162;6.788;2023-02-18T11:55:54;14.55;;;3.90;;
55633;SDS011;41504;53.162;6.788;2023-02-18T11:58:22;8.75;;;3.47;;
55633;SDS011;41504;53.162;6.788;2023-02-18T12:00:49;11.68;;;3.30;;
55633;SDS011;41504;53.162;6.788;2023-02-18T12:03:41;12.85;;;3.75;;
55633;SDS011;41504;53.162;6.788;2023-02-18T12:06:13;12.70;;;3.47;;
55633;SDS011;41504;53.162;6.788;2023-02-18T12:08:50;13.27;;;4.30;;
55633;SDS011;41504;53.162;6.788;2023-02-18T12:11:27;18.08;;;4.50;;
55633;SDS011;41504;53.162;6.788;2023-02-18T12:14:07;13.10;;;3.60;;
55633;SDS011;41504;53.162;6.788;2023-02-18T12:16:48;12.27;;;3.83;;
55633;SDS011;41504;53.162;6.788;2023-02-18T12:22:17;13.05;;;3.20;;
55633;SDS011;41504;53.162;6.788;2023-02-18T12:24:54;14.30;;;3.42;;
55633;SDS011;41504;53.162;6.788;2023-02-18T12:27:36;15.18;;;4.10;;
55633;SDS011;41504;53.162;6.788;2023-02-18T12:35:59;10.60;;;3.58;;
55633;SDS011;41504;53.162;6.788;2023-02-18T12:52:40;15.05;;;3.20;;
55633;SDS011;41504;53.162;6.788;2023-02-18T12:58:17;13.00;;;2.80;;
55633;SDS011;41504;53.162;6.788;2023-02-18T13:12:11;12.63;;;2.65;;
55633;SDS011;41504;53.162;6.788;2023-02-18T13:14:50;13.75;;;3.50;;
55633;SDS011;41504;53.162;6.788;2023-02-18T13:17:24;13.73;;;2.75;;
55633;SDS011;41504;53.162;6.788;2023-02-18T13:20:00;12.07;;;2.50;;
55633;SDS011;41504;53.162;6.788;2023-02-18T13:22:31;8.45;;;2.30;;
55633;SDS011;41504;53.162;6.788;2023-02-18T13:24:58;12.00;;;2.63;;
55633;SDS011;41504;53.162;6.788;2023-02-18T13:27:44;10.48;;;2.65;;
55633;SDS011;41504;53.162;6.788;2023-02-18T13:33:21;11.60;;;2.40;;
55633;SDS011;41504;53.162;6.788;2023-02-18T13:39:23;9.85;;;2.38;;
55633;SDS011;41504;53.162;6.788;2023-02-18T13:41:38;9.45;;;2.30;;
55633;SDS011;41504;53.162;6.788;2023-02-18T13:44:06;12.30;;;2.22;;
55633;SDS011;41504;53.162;6.788;2023-02-18T13:46:43;9.70;;;2.47;;
55633;SDS011;41504;53.162;6.788;2023-02-18T13:49:36;9.32;;;1.90;;
55633;SDS011;41504;53.162;6.788;2023-02-18T13:52:03;13.68;;;2.45;;
55633;SDS011;41504;53.162;6.788;2023-02-18T13:54:31;8.85;;;2.10;;
55633;SDS011;41504;53.162;6.788;2023-02-18T13:59:48;11.27;;;2.33;;
55633;SDS011;41504;53.162;6.788;2023-02-18T14:09:53;9.52;;;2.33;;
55633;SDS011;41504;53.162;6.788;2023-02-18T14:30:59;12.10;;;3.08;;
55633;SDS011;41504;53.162;6.788;2023-02-18T14:33:49;15.88;;;3.30;;
55633;SDS011;41504;53.162;6.788;2023-02-18T14:39:01;12.93;;;2.80;;
55633;SDS011;41504;53.162;6.788;2023-02-18T14:44:19;12.48;;;2.70;;
55633;SDS011;41504;53.162;6.788;2023-02-18T14:49:47;10.77;;;3.30;;
55633;SDS011;41504;53.162;6.788;2023-02-18T14:52:27;8.02;;;2.20;;
55633;SDS011;41504;53.162;6.788;2023-02-18T14:54:57;9.25;;;2.33;;
55633;SDS011;41504;53.162;6.788;2023-02-18T15:00:16;10.95;;;2.83;;
55633;SDS011;41504;53.162;6.788;2023-02-18T15:02:51;10.38;;;2.72;;
55633;SDS011;41504;53.162;6.788;2023-02-18T15:05:25;14.48;;;2.67;;
55633;SDS011;41504;53.162;6.788;2023-02-18T15:08:03;14.93;;;3.60;;
55633;SDS011;41504;53.162;6.788;2023-02-18T15:10:43;11.13;;;3.22;;
55633;SDS011;41504;53.162;6.788;2023-02-18T15:15:50;14.82;;;2.53;;
55633;SDS011;41504;53.162;6.788;2023-02-18T15:20:47;14.10;;;3.03;;
55633;SDS011;41504;53.162;6.788;2023-02-18T15:23:14;13.43;;;2.90;;
55633;SDS011;41504;53.162;6.788;2023-02-18T15:25:48;10.85;;;3.30;;
55633;SDS011;41504;53.162;6.788;2023-02-18T15:28:28;14.63;;;3.08;;
55633;SDS011;41504;53.162;6.788;2023-02-18T15:30:57;14.15;;;2.95;;
55633;SDS011;41504;53.162;6.788;2023-02-18T15:33:23;12.85;;;3.10;;
55633;SDS011;41504;53.162;6.788;2023-02-18T15:35:49;16.30;;;2.97;;
55633;SDS011;41504;53.162;6.788;2023-02-18T15:38:16;14.43;;;3.35;;
55633;SDS011;41504;53.162;6.788;2023-02-18T15:40:48;16.25;;;3.28;;
55633;SDS011;41504;53.162;6.788;2023-02-18T15:43:19;16.00;;;3.63;;
55633;SDS011;41504;53.162;6.788;2023-02-18T15:45:48;13.13;;;3.17;;
55633;SDS011;41504;53.162;6.788;2023-02-18T15:51:12;9.05;;;2.75;;
55633;SDS011;41504;53.162;6.788;2023-02-18T15:53:49;16.45;;;3.97;;
55633;SDS011;41504;53.162;6.788;2023-02-18T15:56:20;19.30;;;3.72;;
55633;SDS011;41504;53.162;6.788;2023-02-18T15:59:06;19.60;;;3.70;;
55633;SDS011;41504;53.162;6.788;2023-02-18T16:01:43;18.17;;;3.60;;
55633;SDS011;41504;53.162;6.788;2023-02-18T16:04:20;17.60;;;3.47;;
55633;SDS011;41504;53.162;6.788;2023-02-18T16:06:53;16.23;;;3.53;;
55633;SDS011;41504;53.162;6.788;2023-02-18T16:09:28;17.70;;;3.85;;
55633;SDS011;41504;53.162;6.788;2023-02-18T16:11:58;15.75;;;3.38;;
55633;SDS011;41504;53.162;6.788;2023-02-18T16:14:43;14.95;;;3.55;;
55633;SDS011;41504;53.162;6.788;2023-02-18T16:22:24;19.73;;;3.37;;
55633;SDS011;41504;53.162;6.788;2023-02-18T16:27:51;15.30;;;3.50;;
55633;SDS011;41504;53.162;6.788;2023-02-18T16:30:23;21.13;;;3.20;;
55633;SDS011;41504;53.162;6.788;2023-02-18T16:32:54;12.50;;;3.05;;
55633;SDS011;41504;53.162;6.788;2023-02-18T16:35:22;14.13;;;3.35;;
55633;SDS011;41504;53.162;6.788;2023-02-18T16:37:52;19.15;;;3.70;;
55633;SDS011;41504;53.162;6.788;2023-02-18T16:40:28;17.80;;;3.25;;
55633;SDS011;41504;53.162;6.788;2023-02-18T16:42:57;13.98;;;3.60;;
55633;SDS011;41504;53.162;6.788;2023-02-18T16:46:12;19.98;;;3.88;;
55633;SDS011;41504;53.162;6.788;2023-02-18T16:53:55;19.85;;;3.80;;
55633;SDS011;41504;53.162;6.788;2023-02-18T16:56:23;19.98;;;4.38;;
55633;SDS011;41504;53.162;6.788;2023-02-18T16:58:51;17.33;;;3.85;;
55633;SDS011;41504;53.162;6.788;2023-02-18T17:01:21;18.73;;;4.45;;
55633;SDS011;41504;53.162;6.788;2023-02-18T17:03:50;19.95;;;4.22;;
55633;SDS011;41504;53.162;6.788;2023-02-18T17:06:17;18.40;;;4.28;;
55633;SDS011;41504;53.162;6.788;2023-02-18T17:08:43;18.60;;;4.07;;
55633;SDS011;41504;53.162;6.788;2023-02-18T17:11:22;21.45;;;3.95;;
55633;SDS011;41504;53.162;6.788;2023-02-18T17:13:51;19.83;;;3.97;;
55633;SDS011;41504;53.162;6.788;2023-02-18T17:16:18;18.05;;;3.35;;
55633;SDS011;41504;53.162;6.788;2023-02-18T17:18:45;20.65;;;3.80;;
55633;SDS011;41504;53.162;6.788;2023-02-18T17:21:15;19.42;;;4.05;;
55633;SDS011;41504;53.162;6.788;2023-02-18T17:23:42;15.05;;;3.97;;
55633;SDS011;41504;53.162;6.788;2023-02-18T17:26:20;18.25;;;4.18;;
55633;SDS011;41504;53.162;6.788;2023-02-18T17:28:49;13.63;;;3.85;;
55633;SDS011;41504;53.162;6.788;2023-02-18T17:31:20;19.05;;;4.25;;
55633;SDS011;41504;53.162;6.788;2023-02-18T17:33:50;15.43;;;3.47;;
55633;SDS011;41504;53.162;6.788;2023-02-18T17:36:17;16.48;;;3.38;;
55633;SDS011;41504;53.162;6.788;2023-02-18T17:38:44;16.98;;;3.85;;
55633;SDS011;41504;53.162;6.788;2023-02-18T17:41:11;18.35;;;3.80;;
55633;SDS011;41504;53.162;6.788;2023-02-18T17:43:38;15.82;;;3.80;;